< Typhoon 199120 1991 Season Typhoon 199122 >
Typhoon 199121 (ORCHID)
General InformationTrack Information on Google MapsDetailed Wind InformationList of All Images || Disaster Info.ResourceGoogle EarthGE AnimationAtom FeedGeoJSON
Detalied Best Track (Time Zone = UTC)
Year Month Day Hour Lat. Long. Pressure (hPa) Wind (kt) Class Image Chart
1991 10 3 00 18.5 142.5 1004 0 2 Image Chart
1991 10 3 06 18.5 141.2 1000 0 2 Image Chart
1991 10 3 12 18.5 140.2 1000 0 2 Image Chart
1991 10 3 18 18.8 139.4 998 0 2 Image Chart
1991 10 4 00 19.0 138.6 994 35 3 Image Chart
1991 10 4 06 19.0 137.7 992 35 3 Image Chart
1991 10 4 12 19.1 137.0 990 40 3 Image Chart
1991 10 4 18 19.1 136.6 985 45 3 Image Chart
1991 10 5 00 19.1 136.5 985 50 4 Image Chart
1991 10 5 06 19.3 136.0 985 50 4 Image Chart
1991 10 5 12 19.3 135.0 985 50 4 Image Chart
1991 10 5 18 19.3 134.4 980 55 4 Image Chart
1991 10 6 00 19.1 133.8 975 60 4 Image Chart
1991 10 6 06 19.0 133.1 965 70 5 Image Chart
1991 10 6 12 18.9 132.5 955 75 5 Image Chart
1991 10 6 18 19.0 131.9 945 85 5 Image Chart
1991 10 7 00 19.1 131.5 940 85 5 Image Chart
1991 10 7 06 19.4 131.1 935 90 5 Image Chart
1991 10 7 12 19.9 130.8 930 95 5 Image Chart
1991 10 7 18 20.3 130.5 930 95 5 Image Chart
1991 10 8 00 20.8 130.4 930 95 5 Image Chart
1991 10 8 06 21.4 130.3 930 95 5 Image Chart
1991 10 8 09 21.8 130.4 930 95 5 Image Chart
1991 10 8 12 22.1 130.5 930 95 5 Image Chart
1991 10 8 15 22.5 130.6 930 95 5 Image Chart
1991 10 8 18 22.9 131.0 935 90 5 Image Chart
1991 10 8 21 23.4 131.4 935 90 5 Image Chart
1991 10 9 00 24.0 131.7 935 90 5 Image Chart
1991 10 9 03 24.4 132.1 935 90 5 Image Chart
1991 10 9 06 25.0 132.5 940 85 5 Image Chart
1991 10 9 09 25.4 132.9 940 85 5 Image Chart
1991 10 9 12 25.8 133.3 940 85 5 Image Chart
1991 10 9 15 26.1 133.6 945 85 5 Image Chart
1991 10 9 18 26.6 133.9 950 80 5 Image Chart
1991 10 9 21 26.7 134.4 950 80 5 Image Chart
1991 10 10 00 27.0 134.8 955 75 5 Image Chart
1991 10 10 03 27.5 135.0 955 75 5 Image Chart
1991 10 10 06 27.8 135.2 960 75 5 Image Chart
1991 10 10 09 28.0 135.5 960 75 5 Image Chart
1991 10 10 12 28.3 135.8 960 75 5 Image Chart
1991 10 10 15 28.6 136.0 960 75 5 Image Chart
1991 10 10 18 28.9 136.3 960 75 5 Image Chart
1991 10 10 21 29.2 136.6 960 75 5 Image Chart
1991 10 11 00 29.6 136.8 960 75 5 Image Chart
1991 10 11 03 30.0 136.9 960 75 5 Image Chart
1991 10 11 06 30.3 137.0 960 75 5 Image Chart
1991 10 11 09 30.5 137.0 960 75 5 Image Chart
1991 10 11 12 30.8 137.0 960 75 5 Image Chart
1991 10 11 15 31.0 137.0 960 70 5 Image Chart
1991 10 11 18 31.1 137.3 960 65 5 Image Chart
1991 10 11 21 31.2 137.5 960 65 5 Image Chart
1991 10 12 00 31.3 138.0 965 60 4 Image Chart
1991 10 12 03 31.6 138.2 965 60 4 Image Chart
1991 10 12 06 31.9 138.7 965 60 4 Image Chart
1991 10 12 09 32.1 138.8 965 60 4 Image Chart
1991 10 12 12 32.3 139.3 970 60 4 Image Chart
1991 10 12 15 32.6 139.9 970 60 4 Image Chart
1991 10 12 18 32.8 140.6 970 60 4 Image Chart
1991 10 12 21 33.2 141.7 975 60 4 Image Chart
1991 10 13 00 33.8 143.0 975 60 4 Image Chart
1991 10 13 03 34.4 143.7 975 60 4 Image Chart
1991 10 13 06 35.5 144.7 980 55 4 Image Chart
1991 10 13 09 36.5 145.7 980 55 4 Image Chart
1991 10 13 12 37.4 146.9 980 55 4 Image Chart
1991 10 13 15 38.5 148.1 980 55 4 Image Chart
1991 10 13 18 39.7 149.6 980 55 4 Image Chart
1991 10 13 21 40.9 150.6 980 50 4 Image Chart
1991 10 14 00 42.7 151.7 980 45 3 Image Chart
1991 10 14 03 44.0 154.0 976 0 6 Image Chart
1991 10 14 06 46.0 155.0 972 0 6 Image Chart
1991 10 14 12 48.0 159.0 972 0 6 Image Chart
1991 10 14 18 51.0 163.0 972 0 6 Image Chart
1991 10 15 00 52.0 167.0 972 0 6 Image Chart
1991 10 15 06 53.0 171.0 976 0 6 Image Chart
1991 10 15 12 54.0 176.0 976 0 6 Image Chart
1991 10 15 18 55.0 181.0 976 0 6 Image Chart
Japan Meteorological Agency Best Track Data | Correction Date : 1992-01-04
< Typhoon 199120 1991 Season Typhoon 199122 >

Help